createdAt,value
2022-07-28T00:02:22.763Z,5.03
2022-07-28T00:04:49.697Z,4.00
2022-07-28T00:07:16.522Z,4.50
2022-07-28T00:09:43.641Z,5.10
2022-07-28T00:12:10.502Z,4.50
2022-07-28T00:14:37.461Z,4.80
2022-07-28T00:17:04.237Z,4.57
2022-07-28T00:19:30.928Z,4.90
2022-07-28T00:21:57.617Z,4.47
2022-07-28T00:24:24.534Z,5.07
2022-07-28T00:26:51.502Z,5.30
2022-07-28T00:29:18.330Z,5.10
2022-07-28T00:31:45.060Z,5.33
2022-07-28T00:34:12.617Z,4.73
2022-07-28T00:36:39.738Z,4.80
2022-07-28T00:39:06.536Z,5.17
2022-07-28T00:41:33.620Z,5.07
2022-07-28T00:44:00.297Z,5.53
2022-07-28T00:46:27.264Z,5.80
2022-07-28T00:48:55.114Z,5.10
2022-07-28T00:51:24.292Z,5.60
2022-07-28T00:53:51.508Z,5.37
2022-07-28T00:56:18.862Z,6.10
2022-07-28T00:58:47.347Z,5.90
2022-07-28T01:01:17.725Z,5.53
2022-07-28T01:03:49.741Z,5.97
2022-07-28T01:06:39.577Z,5.80
2022-07-28T01:09:44.038Z,5.80
2022-07-28T01:12:34.020Z,5.80
2022-07-28T01:15:11.945Z,7.13
2022-07-28T01:17:52.079Z,6.70
2022-07-28T01:20:28.879Z,6.83
2022-07-28T01:23:06.265Z,7.23
2022-07-28T01:25:50.856Z,6.13
2022-07-28T01:28:54.575Z,7.03
2022-07-28T01:31:25.844Z,6.70
2022-07-28T01:34:00.374Z,6.97
2022-07-28T01:36:39.746Z,6.50
2022-07-28T01:39:06.757Z,7.17
2022-07-28T01:41:36.245Z,6.33
2022-07-28T01:44:12.079Z,6.13
2022-07-28T01:46:39.846Z,6.27
2022-07-28T01:49:08.896Z,6.53
2022-07-28T01:51:37.296Z,7.00
2022-07-28T01:54:06.128Z,6.60
2022-07-28T01:56:34.106Z,7.40
2022-07-28T01:59:06.498Z,6.67
2022-07-28T02:01:43.049Z,6.67
2022-07-28T02:04:12.509Z,7.00
2022-07-28T02:06:41.693Z,7.00
2022-07-28T02:09:10.002Z,6.83
2022-07-28T02:11:40.768Z,7.00
2022-07-28T02:14:20.939Z,6.67
2022-07-28T02:16:52.836Z,7.83
2022-07-28T07:23:36.958Z,3.43
2022-07-28T07:26:04.334Z,4.30
2022-07-28T07:28:31.381Z,4.60
2022-07-28T07:30:58.049Z,4.50
2022-07-28T07:33:24.781Z,3.80
2022-07-28T07:35:51.566Z,4.37
2022-07-28T07:38:18.390Z,4.67
2022-07-28T07:40:45.189Z,4.60
2022-07-28T07:43:12.753Z,5.03
2022-07-28T07:45:41.072Z,4.13
2022-07-28T07:48:07.765Z,4.50
2022-07-28T07:50:35.328Z,4.10
2022-07-28T07:53:02.248Z,4.03
2022-07-28T07:55:34.299Z,4.27
2022-07-28T07:58:04.793Z,4.67
2022-07-28T08:00:31.706Z,4.50
2022-07-28T08:02:59.199Z,4.23
2022-07-28T08:05:35.688Z,3.87
2022-07-28T08:08:03.838Z,4.43
2022-07-28T08:10:30.566Z,3.73
2022-07-28T08:12:57.226Z,4.60
2022-07-28T08:15:23.922Z,4.27
2022-07-28T08:17:50.576Z,3.83
2022-07-28T08:20:17.839Z,4.23
2022-07-28T08:22:52.342Z,4.50
2022-07-28T08:25:19.819Z,3.90
2022-07-28T08:27:46.956Z,3.93
2022-07-28T08:30:14.986Z,3.50
2022-07-28T08:32:43.709Z,3.63
2022-07-28T08:35:32.813Z,3.40
2022-07-28T08:38:00.038Z,3.30
2022-07-28T08:40:28.554Z,4.20
2022-07-28T08:43:23.255Z,2.90
2022-07-28T08:45:57.780Z,4.10
2022-07-28T08:48:31.088Z,4.07
2022-07-28T08:51:06.496Z,4.00
2022-07-28T08:53:35.866Z,4.43
2022-07-28T08:56:06.020Z,3.10
2022-07-28T08:58:34.123Z,4.20
2022-07-28T09:01:01.268Z,3.43
2022-07-28T09:03:31.513Z,3.67
2022-07-28T09:05:58.409Z,3.70
2022-07-28T09:08:25.218Z,3.57
2022-07-28T09:10:52.484Z,3.67
2022-07-28T09:13:19.463Z,3.60
2022-07-28T09:15:47.768Z,3.80
2022-07-28T09:18:16.004Z,3.50
2022-07-28T09:20:43.383Z,3.10
2022-07-28T09:23:42.705Z,3.43
2022-07-28T09:26:11.394Z,2.43
2022-07-28T09:28:50.132Z,3.37
2022-07-28T09:31:18.162Z,2.60
2022-07-28T09:34:05.676Z,2.83
2022-07-28T09:36:40.784Z,2.67
2022-07-28T09:39:08.065Z,2.70
2022-07-28T09:41:48.954Z,3.10
2022-07-28T09:44:20.055Z,3.07
2022-07-28T09:46:47.117Z,2.70
2022-07-28T09:49:14.246Z,3.00
2022-07-28T09:51:41.335Z,2.90
2022-07-28T09:54:09.589Z,3.20
2022-07-28T09:56:44.075Z,2.60
2022-07-28T09:59:12.867Z,2.83
2022-07-28T10:01:55.966Z,3.40
2022-07-28T10:04:32.482Z,3.20
2022-07-28T10:07:10.134Z,2.87
2022-07-28T10:09:38.824Z,2.57
2022-07-28T10:12:23.241Z,3.27
2022-07-28T10:14:52.163Z,3.73
2022-07-28T10:17:44.916Z,3.40
2022-07-28T10:20:11.932Z,2.73
2022-07-28T10:22:43.513Z,3.10
2022-07-28T10:25:12.800Z,2.93
2022-07-28T10:27:44.606Z,2.90
2022-07-28T10:30:12.785Z,2.80
2022-07-28T10:32:45.755Z,2.70
2022-07-28T10:35:14.235Z,2.70
2022-07-28T10:37:54.176Z,3.10
2022-07-28T10:40:26.461Z,2.47
2022-07-28T10:42:54.937Z,2.60
2022-07-28T10:45:22.257Z,2.60
2022-07-28T10:47:49.464Z,2.43
2022-07-28T10:50:16.840Z,2.50
2022-07-28T10:52:48.887Z,2.50
2022-07-28T10:55:33.476Z,2.40
2022-07-28T10:58:25.456Z,2.40
2022-07-28T11:01:02.221Z,2.93
2022-07-28T11:03:40.770Z,3.60
2022-07-28T11:06:26.631Z,2.60
2022-07-28T11:08:58.764Z,2.20
2022-07-28T11:11:50.132Z,2.03
2022-07-28T11:14:23.203Z,2.00
2022-07-28T11:17:14.350Z,2.20
2022-07-28T11:20:06.996Z,2.13
2022-07-28T11:22:34.737Z,2.20
2022-07-28T11:25:19.208Z,1.83
2022-07-28T11:27:51.721Z,3.03
2022-07-28T11:30:19.215Z,2.33
2022-07-28T11:32:53.381Z,2.30
2022-07-28T11:35:31.298Z,2.10
2022-07-28T11:38:01.337Z,3.13
2022-07-28T11:40:35.750Z,2.40
2022-07-28T11:43:22.004Z,2.40
2022-07-28T11:46:04.475Z,2.33
2022-07-28T11:48:31.537Z,2.30
2022-07-28T11:51:04.467Z,2.30
2022-07-28T11:53:37.189Z,2.50
2022-07-28T11:56:05.842Z,2.97
2022-07-28T11:58:32.988Z,2.00
2022-07-28T12:01:17.976Z,2.67
2022-07-28T12:03:49.523Z,2.63
2022-07-28T12:06:28.888Z,2.67
2022-07-28T12:09:27.121Z,2.10
2022-07-28T12:11:56.245Z,2.57
2022-07-28T12:14:25.398Z,2.37
2022-07-28T12:16:52.413Z,8.90
2022-07-28T12:19:20.796Z,2.27
2022-07-28T12:21:50.979Z,2.43
2022-07-28T12:24:31.410Z,2.90
2022-07-28T12:27:00.317Z,2.13
2022-07-28T12:29:32.286Z,2.00
2022-07-28T12:32:09.793Z,2.20
2022-07-28T12:34:38.044Z,2.00
2022-07-28T12:37:10.047Z,2.00
2022-07-28T12:39:39.781Z,2.17
2022-07-28T12:42:13.386Z,1.60
2022-07-28T12:44:46.046Z,1.73
2022-07-28T12:47:14.525Z,2.00
2022-07-28T12:49:44.951Z,1.60
2022-07-28T12:52:25.410Z,2.03
2022-07-28T12:54:56.102Z,2.40
2022-07-28T12:57:51.444Z,2.63
2022-07-28T13:00:33.861Z,2.03
2022-07-28T13:03:21.381Z,1.87
2022-07-28T13:06:03.354Z,1.97
2022-07-28T13:08:47.354Z,2.00
2022-07-28T13:11:42.594Z,2.03
2022-07-28T13:14:03.134Z,2.07
2022-07-28T13:16:30.069Z,2.20
2022-07-28T13:19:00.742Z,2.10
2022-07-28T13:21:57.291Z,1.90
2022-07-28T13:24:25.933Z,2.43
2022-07-28T13:26:52.671Z,2.03
2022-07-28T13:29:19.689Z,2.10
2022-07-28T13:31:46.741Z,2.20
2022-07-28T13:34:13.851Z,1.53
2022-07-28T13:36:40.850Z,1.77
2022-07-28T13:39:08.237Z,1.90
2022-07-28T13:41:56.755Z,1.80
2022-07-28T13:44:21.672Z,2.00
2022-07-28T13:46:50.072Z,1.83
2022-07-28T13:49:17.226Z,2.10
2022-07-28T13:51:48.378Z,1.83
2022-07-28T13:54:15.315Z,2.00
2022-07-28T13:56:43.305Z,1.90
2022-07-28T13:59:10.954Z,1.80
2022-07-28T14:01:41.323Z,1.70
2022-07-28T14:04:14.962Z,1.83
2022-07-28T14:06:47.726Z,1.80
2022-07-28T14:09:18.276Z,1.77
2022-07-28T14:11:50.073Z,1.93
2022-07-28T14:14:23.890Z,2.23
2022-07-28T14:16:55.355Z,3.07
2022-07-28T14:19:39.589Z,4.57
2022-07-28T14:22:13.596Z,2.87
2022-07-28T14:24:42.631Z,1.90
2022-07-28T14:27:10.400Z,2.00
2022-07-28T14:29:37.618Z,1.70
2022-07-28T14:32:04.599Z,1.90
2022-07-28T14:34:31.366Z,2.10
2022-07-28T14:37:01.353Z,1.63
2022-07-28T14:39:35.308Z,2.00
2022-07-28T14:42:02.098Z,2.17
2022-07-28T14:44:28.820Z,1.73
2022-07-28T14:46:55.609Z,2.33
2022-07-28T14:49:22.501Z,1.90
2022-07-28T14:51:50.397Z,1.97
2022-07-28T14:54:17.394Z,1.60
2022-07-28T14:56:44.462Z,2.73
2022-07-28T14:59:11.192Z,1.87
2022-07-28T15:01:38.068Z,2.00
2022-07-28T15:04:05.780Z,1.93
2022-07-28T15:06:33.281Z,2.00
2022-07-28T15:09:01.533Z,2.50
2022-07-28T15:11:28.231Z,1.93
2022-07-28T15:13:54.883Z,2.00
2022-07-28T15:16:21.742Z,2.40
2022-07-28T15:18:48.478Z,2.40
2022-07-28T15:21:16.480Z,1.80
2022-07-28T15:23:43.800Z,2.10
2022-07-28T15:26:10.971Z,1.67
2022-07-28T15:28:38.311Z,1.67
2022-07-28T15:31:05.542Z,1.80
2022-07-28T15:33:42.513Z,1.80
2022-07-28T15:36:15.608Z,1.90
2022-07-28T15:38:47.522Z,2.00
2022-07-28T15:41:16.851Z,2.10
2022-07-28T15:43:43.667Z,2.40
2022-07-28T15:46:12.918Z,2.20
2022-07-28T15:48:41.622Z,2.00
2022-07-28T15:51:09.763Z,1.70
2022-07-28T15:53:36.880Z,2.47
2022-07-28T15:56:04.714Z,2.13
2022-07-28T15:58:31.606Z,1.77
2022-07-28T16:00:59.270Z,1.97
2022-07-28T16:03:28.685Z,1.70
2022-07-28T16:05:55.593Z,2.20
2022-07-28T16:08:23.219Z,2.27
2022-07-28T16:10:51.592Z,1.90
2022-07-28T16:13:35.610Z,2.30
2022-07-28T16:16:06.346Z,1.90
2022-07-28T16:18:33.250Z,2.10
2022-07-28T16:21:00.069Z,1.83
2022-07-28T16:23:26.742Z,1.90
2022-07-28T16:25:53.509Z,2.10
2022-07-28T16:28:20.153Z,2.20
2022-07-28T16:30:47.976Z,1.90
2022-07-28T16:33:14.653Z,1.70
2022-07-28T16:35:41.447Z,1.93
2022-07-28T16:38:08.156Z,1.90
2022-07-28T16:40:35.041Z,1.83
2022-07-28T16:43:04.198Z,2.00
2022-07-28T16:45:31.454Z,1.87
2022-07-28T16:47:58.938Z,1.83
2022-07-28T16:50:25.943Z,2.60
2022-07-28T16:52:55.499Z,1.73
2022-07-28T16:55:24.420Z,1.70
2022-07-28T16:57:53.851Z,1.90
2022-07-28T17:00:21.462Z,2.00
2022-07-28T17:02:48.115Z,2.00
2022-07-28T17:05:14.898Z,1.70
2022-07-28T17:07:45.161Z,1.70
2022-07-28T17:10:15.317Z,1.80
2022-07-28T17:12:49.629Z,1.80
2022-07-28T17:15:21.990Z,1.97
2022-07-28T17:17:50.358Z,2.10
2022-07-28T17:20:17.165Z,1.80
2022-07-28T17:22:44.803Z,1.83
2022-07-28T17:25:43.592Z,1.70
2022-07-28T17:27:59.195Z,2.10
2022-07-28T17:30:26.179Z,2.17
2022-07-28T17:32:58.101Z,1.73
2022-07-28T17:35:31.545Z,2.23
2022-07-28T17:38:01.654Z,2.10
2022-07-28T17:40:28.421Z,1.90
2022-07-28T17:42:55.567Z,2.07
2022-07-28T17:45:23.787Z,2.30
2022-07-28T17:47:50.924Z,2.40
2022-07-28T17:50:18.272Z,1.93
2022-07-28T17:52:45.829Z,1.97
2022-07-28T17:55:57.802Z,2.33
2022-07-28T17:58:34.195Z,2.23
2022-07-28T18:01:12.070Z,1.80
2022-07-28T18:03:58.024Z,1.87
2022-07-28T18:06:29.541Z,2.17
2022-07-28T18:08:56.367Z,2.10
2022-07-28T18:11:23.081Z,2.50
2022-07-28T18:14:04.534Z,2.53
2022-07-28T18:16:34.493Z,2.10
2022-07-28T18:19:02.801Z,2.60
2022-07-28T18:21:29.765Z,2.30
2022-07-28T18:23:56.895Z,2.50
2022-07-28T18:26:24.305Z,2.43
2022-07-28T18:28:52.512Z,2.50
2022-07-28T18:31:19.393Z,2.00
2022-07-28T18:33:46.092Z,2.17
2022-07-28T18:36:12.886Z,1.93
2022-07-28T18:38:40.045Z,1.80
2022-07-28T18:41:06.709Z,2.40
2022-07-28T18:43:33.361Z,2.60
2022-07-28T18:46:00.359Z,2.53
2022-07-28T18:48:27.077Z,3.03
2022-07-28T18:50:53.756Z,2.90
2022-07-28T18:53:20.475Z,2.60
2022-07-28T18:55:47.298Z,2.97
2022-07-28T18:58:14.067Z,2.90
2022-07-28T19:00:40.886Z,3.10
2022-07-28T19:03:07.714Z,2.40
2022-07-28T19:05:36.760Z,2.67
2022-07-28T19:08:07.305Z,2.67
2022-07-28T19:10:33.965Z,3.23
2022-07-28T19:13:00.617Z,2.70
2022-07-28T19:15:27.330Z,2.90
2022-07-28T19:18:08.890Z,2.03
2022-07-28T19:20:44.034Z,2.60
2022-07-28T19:23:10.841Z,2.40
2022-07-28T19:25:39.226Z,2.40
2022-07-28T19:28:06.476Z,2.30
2022-07-28T19:30:33.469Z,2.80
2022-07-28T19:33:00.428Z,2.20
2022-07-28T19:35:27.273Z,2.53
2022-07-28T19:37:56.408Z,2.83
2022-07-28T19:40:25.106Z,3.50
2022-07-28T19:42:51.812Z,3.30
2022-07-28T19:45:18.738Z,2.63
2022-07-28T19:47:45.411Z,2.30
2022-07-28T19:50:12.106Z,2.40
2022-07-28T19:52:38.770Z,2.17
2022-07-28T19:55:06.495Z,2.33
2022-07-28T19:57:34.433Z,2.43
2022-07-28T20:00:04.713Z,2.50
2022-07-28T20:02:31.463Z,2.63
2022-07-28T20:04:58.189Z,2.10
2022-07-28T20:07:25.265Z,2.90
2022-07-28T20:09:53.013Z,3.23
2022-07-28T20:12:19.641Z,2.97
2022-07-28T20:14:46.321Z,3.00
2022-07-28T20:17:24.628Z,2.93
2022-07-28T20:19:56.759Z,3.10
2022-07-28T20:22:23.644Z,2.97
2022-07-28T20:24:50.436Z,2.83
2022-07-28T20:27:17.354Z,2.53
2022-07-28T20:29:44.340Z,2.77
2022-07-28T20:32:11.046Z,3.47
2022-07-28T20:34:38.693Z,3.60
2022-07-28T20:37:05.545Z,2.60
2022-07-28T20:39:45.012Z,3.10
2022-07-28T20:42:12.325Z,3.30
2022-07-28T20:44:39.082Z,3.30
2022-07-28T20:47:06.093Z,3.37
2022-07-28T20:49:33.106Z,3.27
2022-07-28T20:51:59.852Z,3.23
2022-07-28T20:54:26.578Z,3.27
2022-07-28T20:56:53.913Z,3.50
2022-07-28T20:59:20.761Z,3.10
2022-07-28T21:01:47.625Z,3.60
2022-07-28T21:04:14.663Z,3.27
2022-07-28T21:06:50.961Z,3.10
2022-07-28T21:09:18.900Z,3.00
2022-07-28T21:11:45.557Z,3.20
2022-07-28T21:14:12.342Z,2.90
2022-07-28T21:16:39.312Z,3.27
2022-07-28T21:19:06.065Z,3.13
2022-07-28T21:21:32.802Z,3.03
2022-07-28T21:23:59.501Z,3.70
2022-07-28T21:26:26.177Z,2.80
2022-07-28T21:29:12.622Z,3.17
2022-07-28T21:32:03.985Z,2.93
2022-07-28T21:34:28.500Z,3.03
2022-07-28T21:36:55.144Z,2.87
2022-07-28T21:39:21.880Z,2.90
2022-07-28T21:41:48.550Z,2.73
2022-07-28T21:44:15.498Z,3.10
2022-07-28T21:46:45.784Z,2.80
2022-07-28T21:49:13.047Z,2.50
2022-07-28T21:51:40.230Z,2.50
2022-07-28T21:54:07.107Z,2.30
2022-07-28T21:56:34.813Z,2.40
2022-07-28T21:59:02.614Z,2.60
2022-07-28T22:01:29.926Z,2.43
2022-07-28T22:03:56.949Z,2.77
2022-07-28T22:06:23.793Z,2.10
2022-07-28T22:08:53.621Z,2.13
2022-07-28T22:11:21.713Z,2.20
2022-07-28T22:13:48.758Z,2.10
2022-07-28T22:16:15.665Z,2.07
2022-07-28T22:18:42.378Z,2.33
2022-07-28T22:21:09.062Z,2.20
2022-07-28T22:23:35.798Z,2.20
2022-07-28T22:26:02.973Z,1.77
2022-07-28T22:28:30.726Z,2.40
2022-07-28T22:30:58.911Z,1.90
2022-07-28T22:33:36.241Z,1.50
2022-07-28T22:36:04.708Z,1.87
2022-07-28T22:38:31.954Z,1.50
2022-07-28T22:40:58.710Z,1.83
2022-07-28T22:43:25.414Z,1.83
2022-07-28T22:45:52.346Z,1.50
2022-07-28T22:48:19.331Z,1.27
2022-07-28T22:50:46.057Z,1.57
2022-07-28T22:53:12.835Z,1.33
2022-07-28T22:55:42.317Z,1.40
2022-07-28T22:58:09.137Z,1.30
2022-07-28T23:00:36.566Z,1.20
2022-07-28T23:03:04.577Z,1.00
2022-07-28T23:05:32.185Z,1.00
2022-07-28T23:07:59.150Z,1.13
2022-07-28T23:10:26.563Z,1.50
2022-07-28T23:12:56.173Z,1.30
2022-07-28T23:15:39.977Z,0.90
2022-07-28T23:18:07.891Z,1.07
2022-07-28T23:20:34.713Z,1.20
2022-07-28T23:23:01.444Z,1.20
2022-07-28T23:25:28.615Z,1.10
2022-07-28T23:27:55.416Z,1.20
2022-07-28T23:30:22.137Z,1.20
2022-07-28T23:32:52.511Z,1.60
2022-07-28T23:35:19.735Z,1.37
2022-07-28T23:37:46.492Z,1.10
2022-07-28T23:40:13.543Z,1.43
2022-07-28T23:42:40.200Z,1.23
2022-07-28T23:45:07.364Z,1.30
2022-07-28T23:47:34.421Z,0.93
2022-07-28T23:50:02.035Z,1.27
2022-07-28T23:52:28.854Z,1.37
2022-07-28T23:54:55.726Z,1.10
2022-07-28T23:57:22.646Z,1.20
2022-07-28T23:59:49.446Z,1.10
